createdAt,value
2018-01-29T00:00:19.707Z,2.10
2018-01-29T00:02:48.979Z,2.27
2018-01-29T00:05:17.647Z,2.31
2018-01-29T00:07:46.205Z,2.28
2018-01-29T00:10:14.708Z,2.32
2018-01-29T00:12:43.347Z,2.38
2018-01-29T00:15:12.696Z,2.32
2018-01-29T00:17:41.255Z,2.32
2018-01-29T00:20:09.806Z,2.32
2018-01-29T00:22:39.073Z,2.25
2018-01-29T00:25:07.636Z,2.21
2018-01-29T00:27:36.175Z,2.14
2018-01-29T00:30:04.685Z,2.39
2018-01-29T00:32:33.236Z,2.41
2018-01-29T00:35:02.612Z,2.60
2018-01-29T00:37:31.944Z,2.66
2018-01-29T00:40:00.508Z,2.82
2018-01-29T00:42:30.222Z,2.80
2018-01-29T00:44:59.545Z,2.88
2018-01-29T00:47:28.048Z,2.64
2018-01-29T00:49:56.601Z,2.69
2018-01-29T00:52:25.127Z,2.40
2018-01-29T00:54:53.664Z,2.55
2018-01-29T00:57:22.427Z,2.91
2018-01-29T00:59:50.927Z,3.01
2018-01-29T01:02:20.249Z,3.41
2018-01-29T01:04:48.792Z,3.55
2018-01-29T01:07:17.291Z,3.53
2018-01-29T01:09:46.620Z,3.50
2018-01-29T01:12:15.466Z,3.34
2018-01-29T01:14:43.973Z,3.05
2018-01-29T01:17:13.235Z,3.07
2018-01-29T01:19:41.871Z,3.39
2018-01-29T01:22:10.452Z,3.55
2018-01-29T01:24:38.946Z,3.49
2018-01-29T01:27:07.551Z,3.64
2018-01-29T01:29:36.055Z,3.87
2018-01-29T01:32:04.612Z,3.96
2018-01-29T01:34:33.335Z,3.59
2018-01-29T01:37:01.885Z,3.72
2018-01-29T01:39:30.366Z,4.17
2018-01-29T01:41:58.895Z,4.58
2018-01-29T01:44:28.147Z,5.09
2018-01-29T01:46:56.619Z,5.13
2018-01-29T01:49:31.954Z,5.09
2018-01-29T01:52:00.515Z,5.00
2018-01-29T01:54:29.060Z,5.24
2018-01-29T01:56:57.852Z,5.21
2018-01-29T01:59:27.846Z,5.01
2018-01-29T02:01:56.346Z,5.16
2018-01-29T02:04:24.889Z,5.16
2018-01-29T02:06:53.435Z,5.15
2018-01-29T02:09:22.703Z,4.80
2018-01-29T02:11:51.235Z,4.84
2018-01-29T02:14:19.726Z,5.02
2018-01-29T02:16:48.207Z,4.90
2018-01-29T02:19:16.739Z,4.95
2018-01-29T02:21:45.247Z,4.99
2018-01-29T02:24:14.503Z,4.80
2018-01-29T02:26:43.075Z,4.40
2018-01-29T02:29:11.559Z,4.38
2018-01-29T02:31:40.051Z,4.33
2018-01-29T02:34:08.589Z,4.41
2018-01-29T02:36:37.101Z,4.61
2018-01-29T02:39:05.611Z,4.69
2018-01-29T02:41:34.163Z,4.77
2018-01-29T02:44:02.729Z,4.99
2018-01-29T02:46:31.292Z,4.82
2018-01-29T02:48:59.855Z,4.67
2018-01-29T02:51:29.123Z,4.65
2018-01-29T02:53:57.627Z,4.48
2018-01-29T02:56:27.092Z,4.40
2018-01-29T02:58:55.591Z,4.31
2018-01-29T03:01:24.846Z,4.57
2018-01-29T03:03:53.703Z,4.55
2018-01-29T03:06:22.260Z,4.68
2018-01-29T03:08:50.746Z,4.52
2018-01-29T03:11:19.659Z,4.56
2018-01-29T03:13:48.923Z,4.62
2018-01-29T03:16:17.412Z,4.35
2018-01-29T03:18:46.364Z,4.46
2018-01-29T03:21:14.912Z,4.46
2018-01-29T03:23:43.403Z,4.37
2018-01-29T03:26:12.762Z,4.68
2018-01-29T03:28:41.246Z,4.62
2018-01-29T03:31:09.742Z,4.75
2018-01-29T03:33:38.271Z,4.77
2018-01-29T03:36:07.516Z,4.69
2018-01-29T03:38:35.990Z,4.85
2018-01-29T03:41:04.534Z,4.87
2018-01-29T03:43:33.085Z,5.02
2018-01-29T03:46:01.569Z,5.44
2018-01-29T03:48:31.036Z,5.19
2018-01-29T03:50:59.515Z,5.23
2018-01-29T03:53:27.995Z,5.42
2018-01-29T03:55:56.521Z,5.59
2018-01-29T03:58:25.771Z,5.63
2018-01-29T04:00:54.334Z,5.55
2018-01-29T04:03:23.091Z,5.22
2018-01-29T04:05:51.639Z,5.07
2018-01-29T04:08:20.170Z,4.99
2018-01-29T04:10:49.481Z,4.82
2018-01-29T04:13:18.032Z,4.82
2018-01-29T04:15:48.031Z,4.91
2018-01-29T04:18:16.735Z,4.90
2018-01-29T04:20:45.220Z,5.24
2018-01-29T04:23:13.707Z,5.28
2018-01-29T04:25:43.154Z,5.58
2018-01-29T04:28:11.639Z,5.58
2018-01-29T04:30:40.147Z,5.14
2018-01-29T04:33:08.835Z,5.12
2018-01-29T04:35:37.397Z,4.89
2018-01-29T04:38:05.943Z,4.91
2018-01-29T04:40:35.489Z,4.88
2018-01-29T04:43:03.983Z,4.80
2018-01-29T04:45:33.439Z,4.79
2018-01-29T04:48:01.967Z,4.91
2018-01-29T04:50:30.472Z,4.79
2018-01-29T04:52:59.819Z,4.92
2018-01-29T04:55:28.563Z,4.97
2018-01-29T04:57:57.060Z,5.10
2018-01-29T05:00:26.315Z,4.95
2018-01-29T05:02:54.911Z,5.05
2018-01-29T05:05:23.403Z,4.91
2018-01-29T05:07:51.957Z,4.64
2018-01-29T05:10:20.731Z,4.66
2018-01-29T05:12:49.280Z,4.58
2018-01-29T05:15:18.599Z,4.63
2018-01-29T05:17:47.473Z,4.26
2018-01-29T05:20:16.820Z,4.18
2018-01-29T05:22:45.315Z,4.24
2018-01-29T05:25:14.019Z,4.32
2018-01-29T05:27:42.512Z,4.19
2018-01-29T05:30:11.043Z,3.92
2018-01-29T05:32:39.770Z,3.77
2018-01-29T05:38:17.455Z,3.89
2018-01-29T05:40:46.009Z,4.01
2018-01-29T05:43:14.495Z,4.18
2018-01-29T05:45:43.047Z,4.26
2018-01-29T05:48:11.619Z,4.14
2018-01-29T05:50:40.128Z,4.24
2018-01-29T05:53:08.762Z,4.48
2018-01-29T05:55:38.016Z,4.58
2018-01-29T05:58:06.515Z,4.63
2018-01-29T06:00:35.051Z,4.74
2018-01-29T06:03:03.560Z,4.66
2018-01-29T06:05:32.067Z,4.64
2018-01-29T06:08:00.607Z,4.88
2018-01-29T06:10:29.094Z,5.08
2018-01-29T06:12:57.591Z,5.04
2018-01-29T06:15:26.187Z,5.16
2018-01-29T06:17:54.735Z,5.60
2018-01-29T06:20:23.283Z,6.11
2018-01-29T06:22:52.619Z,6.50
2018-01-29T06:25:21.100Z,6.53
2018-01-29T06:27:49.604Z,6.37
2018-01-29T06:30:18.142Z,6.49
2018-01-29T06:32:46.642Z,6.58
2018-01-29T06:35:15.187Z,6.86
2018-01-29T06:37:45.288Z,7.19
2018-01-29T06:40:13.846Z,7.82
2018-01-29T06:42:42.922Z,8.25
2018-01-29T06:45:11.455Z,8.67
2018-01-29T06:47:40.041Z,8.98
2018-01-29T06:50:08.526Z,9.03
2018-01-29T06:52:38.088Z,9.07
2018-01-29T06:55:06.620Z,9.16
2018-01-29T06:57:35.267Z,9.08
2018-01-29T07:00:03.988Z,9.48
2018-01-29T07:02:33.244Z,9.17
2018-01-29T07:05:01.733Z,8.82
2018-01-29T07:07:30.520Z,9.20
2018-01-29T07:09:59.819Z,9.41
2018-01-29T07:12:28.458Z,9.97
2018-01-29T07:14:58.121Z,9.70
2018-01-29T07:17:26.807Z,10.44
2018-01-29T07:19:55.307Z,10.30
2018-01-29T07:22:24.098Z,10.44
2018-01-29T07:24:52.755Z,10.68
2018-01-29T07:27:22.163Z,10.66
2018-01-29T07:29:50.695Z,11.63
2018-01-29T07:32:20.100Z,11.70
2018-01-29T07:34:49.550Z,11.97
2018-01-29T07:37:18.471Z,11.88
2018-01-29T07:39:49.358Z,12.75
2018-01-29T07:42:17.859Z,13.14
2018-01-29T07:44:46.400Z,13.99
2018-01-29T07:47:14.900Z,14.15
2018-01-29T07:49:43.392Z,14.59
2018-01-29T07:52:12.027Z,14.99
2018-01-29T07:54:41.288Z,15.71
2018-01-29T07:57:09.784Z,16.44
2018-01-29T07:59:38.404Z,17.50
2018-01-29T08:02:07.671Z,16.93
2018-01-29T08:04:36.161Z,16.54
2018-01-29T08:07:04.769Z,16.86
2018-01-29T08:09:34.092Z,16.30
2018-01-29T08:12:02.601Z,16.87
2018-01-29T08:14:31.147Z,17.04
2018-01-29T08:16:59.707Z,16.76
2018-01-29T08:19:28.267Z,16.75
2018-01-29T08:21:56.912Z,17.05
2018-01-29T08:24:25.469Z,16.95
2018-01-29T08:26:54.792Z,17.09
2018-01-29T08:29:23.539Z,18.41
2018-01-29T08:31:52.036Z,18.53
2018-01-29T08:34:20.539Z,17.80
2018-01-29T08:36:49.248Z,18.04
2018-01-29T08:39:17.978Z,18.97
2018-01-29T08:41:46.543Z,19.89
2018-01-29T08:44:16.761Z,18.40
2018-01-29T08:46:46.108Z,19.21
2018-01-29T08:49:14.608Z,19.03
2018-01-29T08:51:43.216Z,19.31
2018-01-29T08:54:11.715Z,19.46
2018-01-29T08:56:40.281Z,19.81
2018-01-29T08:59:09.236Z,19.97
2018-01-29T09:01:37.740Z,20.92
2018-01-29T09:04:06.237Z,21.38
2018-01-29T09:06:34.803Z,20.95
2018-01-29T09:09:03.392Z,21.31
2018-01-29T09:11:31.896Z,21.93
2018-01-29T09:14:00.693Z,21.51
2018-01-29T09:16:29.972Z,22.15
2018-01-29T09:18:59.248Z,21.61
2018-01-29T09:21:27.784Z,20.03
2018-01-29T09:23:56.280Z,20.24
2018-01-29T09:26:24.784Z,19.60
2018-01-29T09:28:53.550Z,19.22
2018-01-29T09:31:22.029Z,19.96
2018-01-29T09:33:50.589Z,19.01
2018-01-29T09:36:20.101Z,19.24
2018-01-29T09:38:48.610Z,19.49
2018-01-29T09:41:17.109Z,19.42
2018-01-29T09:43:45.748Z,19.23
2018-01-29T09:46:15.016Z,18.97
2018-01-29T09:48:43.536Z,19.02
2018-01-29T09:51:12.999Z,19.45
2018-01-29T09:53:41.502Z,20.54
2018-01-29T09:56:10.826Z,20.87
2018-01-29T09:58:39.467Z,20.41
2018-01-29T10:01:07.967Z,19.66
2018-01-29T10:03:37.232Z,20.66
2018-01-29T10:06:06.543Z,20.29
2018-01-29T10:08:35.865Z,19.96
2018-01-29T10:11:04.356Z,20.15
2018-01-29T10:13:32.958Z,19.88
2018-01-29T10:16:01.516Z,19.73
2018-01-29T10:18:30.081Z,19.64
2018-01-29T10:20:58.836Z,19.39
2018-01-29T10:23:27.346Z,19.59
2018-01-29T10:25:55.906Z,19.75
2018-01-29T10:28:24.849Z,19.73
2018-01-29T10:30:53.351Z,20.24
2018-01-29T10:33:21.903Z,20.03
2018-01-29T10:35:50.565Z,20.05
2018-01-29T10:38:19.079Z,20.60
2018-01-29T10:40:47.571Z,20.26
2018-01-29T10:43:16.119Z,20.08
2018-01-29T10:45:44.643Z,20.53
2018-01-29T10:48:13.911Z,20.52
2018-01-29T10:50:42.524Z,20.86
2018-01-29T10:53:11.040Z,20.88
2018-01-29T10:55:39.896Z,20.30
2018-01-29T10:58:08.702Z,20.54
2018-01-29T11:00:42.735Z,20.82
2018-01-29T11:03:12.068Z,20.64
2018-01-29T11:05:40.568Z,21.03
2018-01-29T11:08:09.131Z,20.66
2018-01-29T11:10:37.739Z,20.08
2018-01-29T11:13:07.033Z,21.06
2018-01-29T11:15:35.543Z,22.24
2018-01-29T11:18:04.403Z,22.46
2018-01-29T11:20:32.913Z,22.03
2018-01-29T11:23:02.245Z,21.24
2018-01-29T11:25:31.007Z,21.52
2018-01-29T11:28:00.327Z,21.92
2018-01-29T11:30:28.858Z,21.59
2018-01-29T11:32:57.520Z,21.72
2018-01-29T11:35:26.024Z,21.69
2018-01-29T11:37:54.525Z,22.38
2018-01-29T11:40:23.323Z,21.96
2018-01-29T11:42:51.836Z,21.69
2018-01-29T11:45:20.389Z,21.79
2018-01-29T11:47:48.933Z,22.08
2018-01-29T11:50:18.328Z,21.59
2018-01-29T11:52:46.839Z,21.08
2018-01-29T11:55:16.332Z,20.90
2018-01-29T11:57:44.895Z,21.07
2018-01-29T12:00:14.211Z,21.54
2018-01-29T12:02:42.927Z,21.09
2018-01-29T12:05:11.434Z,21.30
2018-01-29T12:07:39.941Z,21.16
2018-01-29T12:10:09.308Z,21.14
2018-01-29T12:12:37.833Z,20.88
2018-01-29T12:15:06.356Z,21.22
2018-01-29T12:17:35.000Z,21.00
2018-01-29T12:20:03.502Z,21.68
2018-01-29T12:22:32.763Z,21.74
2018-01-29T12:25:01.403Z,21.98
2018-01-29T12:27:30.736Z,21.67
2018-01-29T12:29:59.299Z,21.62
2018-01-29T12:32:28.329Z,21.67
2018-01-29T12:34:57.623Z,21.13
2018-01-29T12:37:26.119Z,21.03
2018-01-29T12:39:54.751Z,20.89
2018-01-29T12:42:23.248Z,21.04
2018-01-29T12:44:51.799Z,21.49
2018-01-29T12:47:21.203Z,21.13
2018-01-29T12:49:50.604Z,20.89
2018-01-29T12:52:19.932Z,21.08
2018-01-29T12:54:48.547Z,21.22
2018-01-29T12:57:17.028Z,21.02
2018-01-29T12:59:45.524Z,21.71
2018-01-29T13:02:15.119Z,22.21
2018-01-29T13:04:43.620Z,21.88
2018-01-29T13:07:12.125Z,22.19
2018-01-29T13:09:41.435Z,22.36
2018-01-29T13:12:09.932Z,21.60
2018-01-29T13:14:38.440Z,21.58
2018-01-29T13:17:07.044Z,21.46
2018-01-29T13:19:35.540Z,21.54
2018-01-29T13:22:04.807Z,20.90
2018-01-29T13:24:33.343Z,20.32
2018-01-29T13:27:01.901Z,19.94
2018-01-29T13:29:31.067Z,19.41
2018-01-29T13:31:59.848Z,19.39
2018-01-29T13:34:28.359Z,19.37
2018-01-29T13:36:57.655Z,19.61
2018-01-29T13:39:26.200Z,19.91
2018-01-29T13:41:54.695Z,19.49
2018-01-29T13:44:24.023Z,19.83
2018-01-29T13:46:52.853Z,19.92
2018-01-29T13:49:21.347Z,19.73
2018-01-29T13:51:49.852Z,20.29
2018-01-29T13:54:19.417Z,20.65
2018-01-29T13:56:47.921Z,20.95
2018-01-29T13:59:16.427Z,20.96
2018-01-29T14:01:45.795Z,20.86
2018-01-29T14:04:14.287Z,20.63
2018-01-29T14:06:42.852Z,20.57
2018-01-29T14:09:11.501Z,20.04
2018-01-29T14:11:39.995Z,20.04
2018-01-29T14:14:08.509Z,20.23
2018-01-29T14:16:37.134Z,20.41
2018-01-29T14:19:06.467Z,20.83
2018-01-29T14:21:35.062Z,20.88
2018-01-29T14:24:03.606Z,20.40
2018-01-29T14:26:32.199Z,20.73
2018-01-29T14:29:00.768Z,20.92
2018-01-29T14:31:29.316Z,20.76
2018-01-29T14:33:57.863Z,20.67
2018-01-29T14:36:26.371Z,20.55
2018-01-29T14:38:54.927Z,20.33
2018-01-29T14:41:23.431Z,20.18
2018-01-29T14:43:51.940Z,19.83
2018-01-29T14:46:20.783Z,19.73
2018-01-29T14:48:50.091Z,19.59
2018-01-29T14:51:19.359Z,19.50
2018-01-29T14:53:48.380Z,18.85
2018-01-29T14:56:17.712Z,19.06
2018-01-29T14:58:46.215Z,18.63
2018-01-29T15:01:14.828Z,18.37
2018-01-29T15:03:44.091Z,18.20
2018-01-29T15:06:12.663Z,17.93
2018-01-29T15:08:41.385Z,17.96
2018-01-29T15:11:09.887Z,17.85
2018-01-29T15:13:38.396Z,17.63
2018-01-29T15:16:07.707Z,17.52
2018-01-29T15:18:36.266Z,17.17
2018-01-29T15:21:04.767Z,17.17
2018-01-29T15:23:33.482Z,17.03
2018-01-29T15:26:01.992Z,16.84
2018-01-29T15:28:30.582Z,16.63
2018-01-29T15:30:59.732Z,16.53
2018-01-29T15:33:28.235Z,16.39
2018-01-29T15:35:56.809Z,16.20
2018-01-29T15:38:25.546Z,16.15
2018-01-29T15:40:54.105Z,15.90
2018-01-29T15:43:22.615Z,15.86
2018-01-29T15:45:51.504Z,15.77
2018-01-29T15:48:19.995Z,15.74
2018-01-29T15:50:49.267Z,16.02
2018-01-29T15:53:17.816Z,15.95
2018-01-29T15:55:47.093Z,15.93
2018-01-29T15:58:15.600Z,15.88
2018-01-29T16:00:44.502Z,15.85
2018-01-29T16:03:12.995Z,15.71
2018-01-29T16:05:41.497Z,15.60
2018-01-29T16:08:10.880Z,15.70
2018-01-29T16:10:40.153Z,15.49
2018-01-29T16:13:08.669Z,15.53
2018-01-29T16:15:38.384Z,15.36
2018-01-29T16:18:07.657Z,15.23
2018-01-29T16:20:36.156Z,14.99
2018-01-29T16:23:05.775Z,14.82
2018-01-29T16:25:35.115Z,14.38
2018-01-29T16:28:03.691Z,13.61
2018-01-29T16:30:32.527Z,13.51
2018-01-29T16:33:01.103Z,13.63
2018-01-29T16:35:29.615Z,13.52
2018-01-29T16:37:59.115Z,13.47
2018-01-29T16:40:27.615Z,13.50
2018-01-29T16:42:56.936Z,13.58
2018-01-29T16:45:25.787Z,13.60
2018-01-29T16:47:54.295Z,13.83
2018-01-29T16:50:22.816Z,14.06
2018-01-29T16:52:51.368Z,14.13
2018-01-29T16:55:19.869Z,14.11
2018-01-29T16:57:48.371Z,14.04
2018-01-29T17:00:17.746Z,14.09
2018-01-29T17:02:46.247Z,14.15
2018-01-29T17:05:14.750Z,13.98
2018-01-29T17:07:44.125Z,14.06
2018-01-29T17:10:12.652Z,14.05
2018-01-29T17:12:41.213Z,14.00
2018-01-29T17:15:09.770Z,13.91
2018-01-29T17:17:39.100Z,13.96
2018-01-29T17:20:07.604Z,13.90
2018-01-29T17:22:36.613Z,13.75
2018-01-29T17:25:06.770Z,13.49
2018-01-29T17:27:35.290Z,13.43
2018-01-29T17:30:04.689Z,13.29
2018-01-29T17:32:33.202Z,13.21
2018-01-29T17:35:01.723Z,13.11
2018-01-29T17:37:31.040Z,12.82
2018-01-29T17:39:59.600Z,12.74
2018-01-29T17:42:28.103Z,13.04
2018-01-29T17:44:56.710Z,13.21
2018-01-29T17:47:26.038Z,13.35
2018-01-29T17:49:54.552Z,13.37
2018-01-29T17:52:23.321Z,13.31
2018-01-29T17:54:52.585Z,13.48
2018-01-29T17:57:21.083Z,13.44
2018-01-29T17:59:49.801Z,13.44
2018-01-29T18:02:19.071Z,13.49
2018-01-29T18:04:47.608Z,13.27
2018-01-29T18:07:16.163Z,13.14
2018-01-29T18:09:45.423Z,13.06
2018-01-29T18:12:13.928Z,12.86
2018-01-29T18:14:43.311Z,12.84
2018-01-29T18:17:11.877Z,12.81
2018-01-29T18:19:40.376Z,12.57
2018-01-29T18:22:08.933Z,12.67
2018-01-29T18:24:37.424Z,12.72
2018-01-29T18:27:05.930Z,12.78
2018-01-29T18:29:34.548Z,12.69
2018-01-29T18:32:03.054Z,12.66
2018-01-29T18:34:31.544Z,12.65
2018-01-29T18:37:00.152Z,12.65
2018-01-29T18:39:28.647Z,12.67
2018-01-29T18:41:57.925Z,12.72
2018-01-29T18:44:26.708Z,12.66
2018-01-29T18:46:55.301Z,12.45
2018-01-29T18:49:23.815Z,12.35
2018-01-29T18:51:53.312Z,12.17
2018-01-29T18:54:21.871Z,12.14
2018-01-29T18:56:50.369Z,11.94
2018-01-29T18:59:19.256Z,11.93
2018-01-29T19:01:47.759Z,11.78
2018-01-29T19:04:17.028Z,11.90
2018-01-29T19:06:45.575Z,11.83
2018-01-29T19:09:14.137Z,11.93
2018-01-29T19:11:42.713Z,11.75
2018-01-29T19:14:11.361Z,11.42
2018-01-29T19:16:41.233Z,11.36
2018-01-29T19:19:09.737Z,11.06
2018-01-29T19:21:38.739Z,10.86
2018-01-29T19:24:07.223Z,10.73
2018-01-29T19:26:35.730Z,10.72
2018-01-29T19:29:04.267Z,10.80
2018-01-29T19:31:32.775Z,11.19
2018-01-29T19:34:01.348Z,11.41
2018-01-29T19:36:29.888Z,11.36
2018-01-29T19:38:58.428Z,11.41
2018-01-29T19:41:27.000Z,11.51
2018-01-29T19:43:55.607Z,11.37
2018-01-29T19:46:24.117Z,11.22
2018-01-29T19:48:52.621Z,11.19
2018-01-29T19:51:21.168Z,11.20
2018-01-29T19:53:49.736Z,11.16
2018-01-29T19:56:18.296Z,11.24
2018-01-29T19:58:46.908Z,11.15
2018-01-29T20:01:15.478Z,11.26
2018-01-29T20:03:44.845Z,11.36
2018-01-29T20:06:13.622Z,11.27
2018-01-29T20:08:42.947Z,11.43
2018-01-29T20:11:11.462Z,11.25
2018-01-29T20:13:40.940Z,11.43
2018-01-29T20:16:09.504Z,11.46
2018-01-29T20:18:38.005Z,11.15
2018-01-29T20:21:06.652Z,11.19
2018-01-29T20:23:35.207Z,11.39
2018-01-29T20:26:03.727Z,11.50
2018-01-29T20:28:32.522Z,11.55
2018-01-29T20:31:01.096Z,11.54
2018-01-29T20:33:29.645Z,11.66
2018-01-29T20:35:58.572Z,11.65
2018-01-29T20:38:27.099Z,11.49
2018-01-29T20:40:56.428Z,11.52
2018-01-29T20:43:25.316Z,11.53
2018-01-29T20:45:53.824Z,11.42
2018-01-29T20:48:22.360Z,11.53
2018-01-29T20:50:51.206Z,11.65
2018-01-29T20:53:19.768Z,11.55
2018-01-29T20:55:48.276Z,11.67
2018-01-29T20:58:17.052Z,11.67
2018-01-29T21:00:45.551Z,11.88
2018-01-29T21:03:14.920Z,11.97
2018-01-29T21:05:43.459Z,12.16
2018-01-29T21:08:12.786Z,12.25
2018-01-29T21:10:41.345Z,12.07
2018-01-29T21:13:10.847Z,11.95
2018-01-29T21:15:40.171Z,11.95
2018-01-29T21:18:08.673Z,12.01
2018-01-29T21:20:37.228Z,11.85
2018-01-29T21:23:05.728Z,11.82
2018-01-29T21:25:34.604Z,11.73
2018-01-29T21:28:03.151Z,11.74
2018-01-29T21:30:31.672Z,11.64
2018-01-29T21:33:00.227Z,11.78
2018-01-29T21:35:29.740Z,11.61
2018-01-29T21:37:59.007Z,11.59
2018-01-29T21:40:27.515Z,11.68
2018-01-29T21:42:56.887Z,11.61
2018-01-29T21:45:25.388Z,11.78
2018-01-29T21:47:53.892Z,11.56
2018-01-29T21:50:23.204Z,11.11
2018-01-29T21:52:51.691Z,10.70
2018-01-29T21:55:20.253Z,10.23
2018-01-29T21:57:49.744Z,9.80
2018-01-29T22:00:18.239Z,9.71
2018-01-29T22:02:47.564Z,9.51
2018-01-29T22:05:16.419Z,9.33
2018-01-29T22:07:44.973Z,9.29
2018-01-29T22:10:13.466Z,9.68
2018-01-29T22:12:42.008Z,10.02
2018-01-29T22:15:10.523Z,9.96
2018-01-29T22:17:39.023Z,10.19
2018-01-29T22:20:07.572Z,10.08
2018-01-29T22:22:36.105Z,9.79
2018-01-29T22:25:05.440Z,9.51
2018-01-29T22:27:34.127Z,9.29
2018-01-29T22:30:02.623Z,9.26
2018-01-29T22:32:31.122Z,9.39
2018-01-29T22:34:59.686Z,9.29
2018-01-29T22:37:28.259Z,9.21
2018-01-29T22:39:56.818Z,9.11
2018-01-29T22:42:25.536Z,8.98
2018-01-29T22:44:54.025Z,8.79
2018-01-29T22:47:22.576Z,8.59
2018-01-29T22:49:51.180Z,8.59
2018-01-29T22:52:19.671Z,8.57
2018-01-29T22:54:48.220Z,8.46
2018-01-29T22:57:17.075Z,8.29
2018-01-29T22:59:45.660Z,8.16
2018-01-29T23:02:14.143Z,7.98
2018-01-29T23:04:43.020Z,7.83
2018-01-29T23:07:11.515Z,7.89
2018-01-29T23:09:40.776Z,8.16
2018-01-29T23:12:09.606Z,8.41
2018-01-29T23:14:38.929Z,8.50
2018-01-29T23:17:07.483Z,8.53
2018-01-29T23:19:36.119Z,8.67
2018-01-29T23:22:04.616Z,8.68
2018-01-29T23:24:33.171Z,8.58
2018-01-29T23:27:01.714Z,8.39
2018-01-29T23:29:31.041Z,8.20
2018-01-29T23:31:59.597Z,8.27
2018-01-29T23:34:28.199Z,8.22
2018-01-29T23:36:57.452Z,8.35
2018-01-29T23:39:26.005Z,8.23
2018-01-29T23:41:54.822Z,7.84
2018-01-29T23:44:24.189Z,7.33
2018-01-29T23:46:52.739Z,6.96
2018-01-29T23:49:21.327Z,6.68
2018-01-29T23:51:50.592Z,6.70
2018-01-29T23:54:19.099Z,6.70
2018-01-29T23:56:48.067Z,6.56
2018-01-29T23:59:16.571Z,6.53
